FAB2287 SBQV-SBUF
Flight info
| Callsign | FAB2287 |
|---|---|
| Flight time | N/A |
| Altitude | 9000 |
| Route | DCT 12 9 48S 39 33 30W DCT |
| Aircraft | C95M/L-SDE3/C |
Departure
| Time | N/A |
|---|---|
| Airport | SBQV |
Arrival
| Time | 2026-05-04 21:14 |
|---|---|
| Airport | Paulo Afonso Airport (SBUF) |
| Time | Latitude | Longitude | Altitude | Speed | Heading |
|---|---|---|---|---|---|
| 2026-05-04 19:30 | -14.86483 | -40.86309 | 3003 ft | 0 kts | 217° |
| 2026-05-04 19:33 | -14.86484 | -40.86310 | 3003 ft | 1 kts | 222° |
| 2026-05-04 19:33 | -14.86480 | -40.86319 | 3003 ft | 0 kts | 2° |
| 2026-05-04 19:34 | -14.86474 | -40.86316 | 3003 ft | 0 kts | 43° |
| 2026-05-04 19:34 | -14.86474 | -40.86315 | 3003 ft | 1 kts | 43° |
| 2026-05-04 19:34 | -14.86439 | -40.86279 | 3003 ft | 10 kts | 41° |
| 2026-05-04 19:34 | -14.86399 | -40.86247 | 3003 ft | 10 kts | 36° |
| 2026-05-04 19:35 | -14.86326 | -40.86288 | 3003 ft | 10 kts | 313° |
| 2026-05-04 19:35 | -14.86264 | -40.86380 | 3003 ft | 24 kts | 307° |
| 2026-05-04 19:35 | -14.86154 | -40.86535 | 3003 ft | 28 kts | 306° |
| 2026-05-04 19:35 | -14.86045 | -40.86690 | 3003 ft | 28 kts | 306° |
| 2026-05-04 19:36 | -14.85921 | -40.86864 | 3003 ft | 26 kts | 317° |
| 2026-05-04 19:36 | -14.85864 | -40.86940 | 3003 ft | 9 kts | 195° |
| 2026-05-04 19:36 | -14.85930 | -40.86846 | 3003 ft | 36 kts | 126° |
| 2026-05-04 19:36 | -14.86208 | -40.86450 | 3003 ft | 99 kts | 126° |
| 2026-05-04 19:37 | -14.86686 | -40.85771 | 3111 ft | 126 kts | 126° |
| 2026-05-04 19:37 | -14.87256 | -40.84978 | 3351 ft | 146 kts | 127° |
| 2026-05-04 19:37 | -14.87880 | -40.84106 | 3591 ft | 159 kts | 126° |
| 2026-05-04 19:37 | -14.88490 | -40.83111 | 3811 ft | 171 kts | 110° |
| 2026-05-04 19:38 | -14.88547 | -40.81862 | 4033 ft | 178 kts | 74° |
| 2026-05-04 19:38 | -14.87885 | -40.80779 | 4244 ft | 183 kts | 40° |
| 2026-05-04 19:38 | -14.86734 | -40.80224 | 4471 ft | 186 kts | 13° |
| 2026-05-04 19:38 | -14.85464 | -40.79992 | 4689 ft | 189 kts | 9° |
| 2026-05-04 19:39 | -14.84143 | -40.79746 | 4896 ft | 192 kts | 12° |
| 2026-05-04 19:39 | -14.82858 | -40.79421 | 5097 ft | 194 kts | 15° |
| 2026-05-04 19:39 | -14.81556 | -40.79004 | 5301 ft | 195 kts | 19° |
| 2026-05-04 19:39 | -14.80280 | -40.78530 | 5501 ft | 196 kts | 21° |
| 2026-05-04 19:40 | -14.78999 | -40.78008 | 5704 ft | 197 kts | 22° |
| 2026-05-04 19:40 | -14.77732 | -40.77462 | 5905 ft | 197 kts | 23° |
| 2026-05-04 19:40 | -14.76481 | -40.76904 | 6104 ft | 198 kts | 24° |
| 2026-05-04 19:40 | -14.75211 | -40.76323 | 6311 ft | 197 kts | 22° |
| 2026-05-04 19:41 | -14.73975 | -40.75742 | 6501 ft | 198 kts | 20° |
| 2026-05-04 19:41 | -14.72707 | -40.75147 | 6692 ft | 201 kts | 19° |
| 2026-05-04 19:41 | -14.71436 | -40.74556 | 6895 ft | 203 kts | 19° |
| 2026-05-04 19:41 | -14.70141 | -40.73953 | 7099 ft | 204 kts | 19° |
| 2026-05-04 19:42 | -14.68836 | -40.73345 | 7301 ft | 205 kts | 19° |
| 2026-05-04 19:42 | -14.67543 | -40.72740 | 7501 ft | 206 kts | 19° |
| 2026-05-04 19:42 | -14.66236 | -40.72127 | 7701 ft | 207 kts | 19° |
| 2026-05-04 19:42 | -14.64924 | -40.71511 | 7902 ft | 207 kts | 19° |
| 2026-05-04 19:43 | -14.63619 | -40.70897 | 8101 ft | 208 kts | 19° |
| 2026-05-04 19:43 | -14.62309 | -40.70281 | 8300 ft | 208 kts | 19° |
| 2026-05-04 19:43 | -14.60987 | -40.69659 | 8501 ft | 208 kts | 19° |
| 2026-05-04 19:43 | -14.59669 | -40.69039 | 8701 ft | 209 kts | 19° |
| 2026-05-04 19:44 | -14.58334 | -40.68411 | 8867 ft | 211 kts | 19° |
| 2026-05-04 19:44 | -14.56997 | -40.67784 | 8971 ft | 215 kts | 19° |
| 2026-05-04 19:44 | -14.55607 | -40.67133 | 8999 ft | 222 kts | 19° |
| 2026-05-04 19:44 | -14.54179 | -40.66464 | 9003 ft | 228 kts | 19° |
| 2026-05-04 19:45 | -14.52718 | -40.65779 | 9004 ft | 232 kts | 19° |
| 2026-05-04 19:45 | -14.51247 | -40.65088 | 9003 ft | 234 kts | 20° |
| 2026-05-04 19:45 | -14.49748 | -40.64382 | 9002 ft | 236 kts | 20° |
| 2026-05-04 19:45 | -14.48257 | -40.63680 | 9001 ft | 237 kts | 20° |
| 2026-05-04 19:46 | -14.46765 | -40.62978 | 9001 ft | 238 kts | 20° |
| 2026-05-04 19:46 | -14.45241 | -40.62260 | 9001 ft | 239 kts | 20° |
| 2026-05-04 19:46 | -14.43737 | -40.61553 | 9000 ft | 239 kts | 20° |
| 2026-05-04 19:46 | -14.42218 | -40.60838 | 9000 ft | 239 kts | 20° |
| 2026-05-04 19:47 | -14.40709 | -40.60128 | 9000 ft | 240 kts | 20° |
| 2026-05-04 19:47 | -14.39183 | -40.59411 | 9000 ft | 240 kts | 20° |
| 2026-05-04 19:47 | -14.37661 | -40.58696 | 9000 ft | 240 kts | 20° |
| 2026-05-04 19:47 | -14.36138 | -40.57981 | 9000 ft | 240 kts | 20° |
| 2026-05-04 19:48 | -14.34635 | -40.57275 | 9000 ft | 240 kts | 20° |
| 2026-05-04 19:48 | -14.33116 | -40.56561 | 9000 ft | 240 kts | 20° |
| 2026-05-04 19:48 | -14.31589 | -40.55845 | 9000 ft | 240 kts | 20° |
| 2026-05-04 19:48 | -14.30066 | -40.55130 | 9000 ft | 240 kts | 20° |
| 2026-05-04 19:49 | -14.28545 | -40.54416 | 9000 ft | 240 kts | 20° |
| 2026-05-04 19:49 | -14.27023 | -40.53702 | 9000 ft | 240 kts | 20° |
| 2026-05-04 19:49 | -14.25497 | -40.52986 | 9000 ft | 240 kts | 20° |
| 2026-05-04 19:49 | -14.23993 | -40.52281 | 9000 ft | 240 kts | 20° |
| 2026-05-04 19:50 | -14.22474 | -40.51568 | 9000 ft | 240 kts | 20° |
| 2026-05-04 19:50 | -14.20953 | -40.50855 | 9000 ft | 240 kts | 20° |
| 2026-05-04 19:50 | -14.19424 | -40.50139 | 9000 ft | 240 kts | 20° |
| 2026-05-04 19:50 | -14.17898 | -40.49423 | 9000 ft | 240 kts | 20° |
| 2026-05-04 19:51 | -14.16394 | -40.48719 | 9000 ft | 240 kts | 20° |
| 2026-05-04 19:51 | -14.14870 | -40.48005 | 9000 ft | 240 kts | 20° |
| 2026-05-04 19:51 | -14.13345 | -40.47290 | 9000 ft | 240 kts | 20° |
| 2026-05-04 19:51 | -14.11822 | -40.46577 | 9000 ft | 240 kts | 20° |
| 2026-05-04 19:52 | -14.10312 | -40.45870 | 9000 ft | 240 kts | 20° |
| 2026-05-04 19:52 | -14.08787 | -40.45156 | 9000 ft | 240 kts | 20° |
| 2026-05-04 19:52 | -14.07262 | -40.44441 | 9000 ft | 240 kts | 20° |
| 2026-05-04 19:52 | -14.05739 | -40.43728 | 9000 ft | 240 kts | 20° |
| 2026-05-04 19:53 | -14.04230 | -40.43022 | 9000 ft | 240 kts | 20° |
| 2026-05-04 19:53 | -14.02709 | -40.42311 | 9000 ft | 240 kts | 20° |
| 2026-05-04 19:53 | -14.01180 | -40.41595 | 9000 ft | 240 kts | 20° |
| 2026-05-04 19:53 | -13.99659 | -40.40883 | 9000 ft | 240 kts | 20° |
| 2026-05-04 19:54 | -13.98134 | -40.40170 | 9000 ft | 240 kts | 20° |
| 2026-05-04 19:54 | -13.96612 | -40.39458 | 9000 ft | 240 kts | 20° |
| 2026-05-04 19:54 | -13.95106 | -40.38754 | 9000 ft | 240 kts | 20° |
| 2026-05-04 19:54 | -13.93584 | -40.38042 | 9000 ft | 240 kts | 20° |
| 2026-05-04 19:55 | -13.92052 | -40.37326 | 9000 ft | 240 kts | 20° |
| 2026-05-04 19:55 | -13.90543 | -40.36620 | 9000 ft | 240 kts | 20° |
| 2026-05-04 19:55 | -13.89012 | -40.35905 | 9000 ft | 240 kts | 20° |
| 2026-05-04 19:55 | -13.87502 | -40.35199 | 9000 ft | 240 kts | 20° |
| 2026-05-04 19:56 | -13.85976 | -40.34486 | 9000 ft | 240 kts | 20° |
| 2026-05-04 19:56 | -13.84449 | -40.33773 | 9000 ft | 240 kts | 20° |
| 2026-05-04 19:56 | -13.82938 | -40.33067 | 9000 ft | 240 kts | 20° |
| 2026-05-04 19:56 | -13.81413 | -40.32355 | 9000 ft | 240 kts | 20° |
| 2026-05-04 19:57 | -13.80419 | -40.31891 | 9000 ft | 240 kts | 20° |
| 2026-05-04 19:57 | -13.78867 | -40.31166 | 9000 ft | 240 kts | 20° |
| 2026-05-04 19:57 | -13.77340 | -40.30453 | 9000 ft | 240 kts | 20° |
| 2026-05-04 19:57 | -13.75833 | -40.29749 | 9000 ft | 240 kts | 20° |
| 2026-05-04 19:58 | -13.74308 | -40.29037 | 9000 ft | 240 kts | 20° |
| 2026-05-04 19:58 | -13.72778 | -40.28324 | 9000 ft | 240 kts | 20° |
| 2026-05-04 19:58 | -13.71272 | -40.27621 | 9000 ft | 240 kts | 20° |
| 2026-05-04 19:58 | -13.69742 | -40.26907 | 9000 ft | 240 kts | 20° |
| 2026-05-04 19:59 | -13.68214 | -40.26194 | 9000 ft | 240 kts | 20° |
| 2026-05-04 19:59 | -13.66700 | -40.25488 | 9000 ft | 240 kts | 20° |
| 2026-05-04 19:59 | -13.65167 | -40.24774 | 9000 ft | 240 kts | 20° |
| 2026-05-04 19:59 | -13.63655 | -40.24068 | 9000 ft | 240 kts | 20° |
| 2026-05-04 20:00 | -13.62128 | -40.23356 | 9000 ft | 240 kts | 20° |
| 2026-05-04 20:00 | -13.60611 | -40.22649 | 9000 ft | 240 kts | 20° |
| 2026-05-04 20:00 | -13.59103 | -40.21947 | 9000 ft | 240 kts | 20° |
| 2026-05-04 20:00 | -13.57558 | -40.21227 | 9000 ft | 240 kts | 20° |
| 2026-05-04 20:01 | -13.56049 | -40.20524 | 9000 ft | 240 kts | 20° |
| 2026-05-04 20:01 | -13.54512 | -40.19807 | 9000 ft | 240 kts | 20° |
| 2026-05-04 20:01 | -13.53003 | -40.19104 | 9000 ft | 240 kts | 20° |
| 2026-05-04 20:01 | -13.51472 | -40.18391 | 9000 ft | 240 kts | 20° |
| 2026-05-04 20:02 | -13.49956 | -40.17686 | 9000 ft | 240 kts | 20° |
| 2026-05-04 20:02 | -13.48431 | -40.16975 | 9000 ft | 240 kts | 20° |
| 2026-05-04 20:02 | -13.46904 | -40.16264 | 9000 ft | 240 kts | 20° |
| 2026-05-04 20:02 | -13.45391 | -40.15560 | 9000 ft | 240 kts | 20° |
| 2026-05-04 20:03 | -13.43859 | -40.14847 | 9000 ft | 240 kts | 20° |
| 2026-05-04 20:03 | -13.42338 | -40.14140 | 9000 ft | 240 kts | 20° |
| 2026-05-04 20:03 | -13.40826 | -40.13436 | 9000 ft | 240 kts | 20° |
| 2026-05-04 20:03 | -13.39298 | -40.12725 | 9000 ft | 240 kts | 20° |
| 2026-05-04 20:04 | -13.37772 | -40.12015 | 9000 ft | 240 kts | 20° |
| 2026-05-04 20:04 | -13.36235 | -40.11300 | 9000 ft | 240 kts | 20° |
| 2026-05-04 20:04 | -13.34726 | -40.10598 | 9000 ft | 240 kts | 20° |
| 2026-05-04 20:04 | -13.33201 | -40.09889 | 9000 ft | 240 kts | 20° |
| 2026-05-04 20:05 | -13.31664 | -40.09175 | 9000 ft | 240 kts | 19° |
| 2026-05-04 20:05 | -13.30143 | -40.08468 | 9000 ft | 240 kts | 19° |
| 2026-05-04 20:05 | -13.28627 | -40.07763 | 9000 ft | 240 kts | 19° |
| 2026-05-04 20:05 | -13.27097 | -40.07053 | 9000 ft | 240 kts | 19° |
| 2026-05-04 20:06 | -13.25582 | -40.06348 | 9000 ft | 240 kts | 19° |
| 2026-05-04 20:06 | -13.24055 | -40.05639 | 9000 ft | 240 kts | 19° |
| 2026-05-04 20:06 | -13.22538 | -40.04934 | 9000 ft | 240 kts | 19° |
| 2026-05-04 20:06 | -13.21011 | -40.04225 | 9000 ft | 240 kts | 19° |
| 2026-05-04 20:07 | -13.19499 | -40.03523 | 9000 ft | 240 kts | 19° |
| 2026-05-04 20:07 | -13.17955 | -40.02806 | 9000 ft | 240 kts | 19° |
| 2026-05-04 20:07 | -13.16447 | -40.02106 | 9000 ft | 240 kts | 19° |
| 2026-05-04 20:07 | -13.14909 | -40.01392 | 9000 ft | 240 kts | 19° |
| 2026-05-04 20:08 | -13.13384 | -40.00684 | 9000 ft | 240 kts | 19° |
| 2026-05-04 20:08 | -13.11871 | -39.99982 | 9000 ft | 240 kts | 19° |
| 2026-05-04 20:08 | -13.10357 | -39.99280 | 9000 ft | 240 kts | 19° |
| 2026-05-04 20:08 | -13.08822 | -39.98568 | 9000 ft | 240 kts | 19° |
| 2026-05-04 20:09 | -13.07292 | -39.97858 | 9000 ft | 240 kts | 19° |
| 2026-05-04 20:09 | -13.05771 | -39.97153 | 9000 ft | 240 kts | 19° |
| 2026-05-04 20:09 | -13.04243 | -39.96444 | 9000 ft | 240 kts | 19° |
| 2026-05-04 20:09 | -13.02735 | -39.95745 | 9000 ft | 240 kts | 19° |
| 2026-05-04 20:10 | -13.01207 | -39.95036 | 9000 ft | 240 kts | 19° |
| 2026-05-04 20:10 | -12.99665 | -39.94322 | 9000 ft | 240 kts | 19° |
| 2026-05-04 20:10 | -12.98146 | -39.93617 | 9000 ft | 240 kts | 19° |
| 2026-05-04 20:10 | -12.96622 | -39.92911 | 9000 ft | 240 kts | 19° |
| 2026-05-04 20:11 | -12.95110 | -39.92210 | 9000 ft | 240 kts | 19° |
| 2026-05-04 20:11 | -12.93575 | -39.91499 | 9000 ft | 240 kts | 19° |
| 2026-05-04 20:11 | -12.92056 | -39.90796 | 9000 ft | 240 kts | 19° |
| 2026-05-04 20:11 | -12.90529 | -39.90088 | 9000 ft | 240 kts | 19° |
| 2026-05-04 20:12 | -12.89016 | -39.89388 | 9000 ft | 240 kts | 19° |
| 2026-05-04 20:12 | -12.87479 | -39.88676 | 9000 ft | 240 kts | 19° |
| 2026-05-04 20:12 | -12.85957 | -39.87971 | 9000 ft | 241 kts | 19° |
| 2026-05-04 20:12 | -12.84431 | -39.87265 | 9000 ft | 241 kts | 19° |
| 2026-05-04 20:13 | -12.82901 | -39.86556 | 9000 ft | 241 kts | 19° |
| 2026-05-04 20:13 | -12.81378 | -39.85852 | 9000 ft | 241 kts | 19° |
| 2026-05-04 20:13 | -12.79856 | -39.85147 | 9000 ft | 241 kts | 19° |
| 2026-05-04 20:13 | -12.78337 | -39.84445 | 9000 ft | 241 kts | 19° |
| 2026-05-04 20:14 | -12.76811 | -39.83739 | 9000 ft | 241 kts | 19° |
| 2026-05-04 20:14 | -12.75269 | -39.83025 | 9000 ft | 241 kts | 19° |
| 2026-05-04 20:14 | -12.73753 | -39.82324 | 9000 ft | 241 kts | 19° |
| 2026-05-04 20:14 | -12.72222 | -39.81616 | 9000 ft | 241 kts | 19° |
| 2026-05-04 20:15 | -12.70714 | -39.80919 | 9000 ft | 241 kts | 19° |
| 2026-05-04 20:15 | -12.69173 | -39.80206 | 9000 ft | 241 kts | 19° |
| 2026-05-04 20:15 | -12.67663 | -39.79508 | 9000 ft | 241 kts | 19° |
| 2026-05-04 20:15 | -12.66131 | -39.78800 | 9000 ft | 241 kts | 19° |
| 2026-05-04 20:16 | -12.64596 | -39.78091 | 9000 ft | 241 kts | 19° |
| 2026-05-04 20:16 | -12.63076 | -39.77388 | 9000 ft | 241 kts | 19° |
| 2026-05-04 20:16 | -12.61559 | -39.76688 | 9000 ft | 241 kts | 19° |
| 2026-05-04 20:16 | -12.60026 | -39.75979 | 9000 ft | 241 kts | 19° |
| 2026-05-04 20:17 | -12.58501 | -39.75275 | 9000 ft | 241 kts | 19° |
| 2026-05-04 20:17 | -12.56964 | -39.74565 | 9000 ft | 241 kts | 19° |
| 2026-05-04 20:17 | -12.55452 | -39.73867 | 9000 ft | 241 kts | 19° |
| 2026-05-04 20:17 | -12.53911 | -39.73155 | 9000 ft | 241 kts | 19° |
| 2026-05-04 20:18 | -12.52401 | -39.72458 | 9000 ft | 241 kts | 19° |
| 2026-05-04 20:18 | -12.50865 | -39.71749 | 9000 ft | 241 kts | 19° |
| 2026-05-04 20:18 | -12.49354 | -39.71052 | 9000 ft | 241 kts | 19° |
| 2026-05-04 20:18 | -12.47814 | -39.70341 | 9000 ft | 241 kts | 19° |
| 2026-05-04 20:19 | -12.46288 | -39.69637 | 9000 ft | 241 kts | 19° |
| 2026-05-04 20:19 | -12.44764 | -39.68934 | 9000 ft | 241 kts | 19° |
| 2026-05-04 20:19 | -12.43245 | -39.68233 | 9000 ft | 241 kts | 19° |
| 2026-05-04 20:19 | -12.41706 | -39.67523 | 9000 ft | 241 kts | 19° |
| 2026-05-04 20:20 | -12.40189 | -39.66824 | 9000 ft | 241 kts | 19° |
| 2026-05-04 20:20 | -12.38661 | -39.66119 | 9000 ft | 241 kts | 19° |
| 2026-05-04 20:20 | -12.37126 | -39.65411 | 9000 ft | 241 kts | 19° |
| 2026-05-04 20:20 | -12.35615 | -39.64715 | 9000 ft | 241 kts | 19° |
| 2026-05-04 20:21 | -12.34084 | -39.64009 | 9000 ft | 241 kts | 19° |
| 2026-05-04 20:21 | -12.32567 | -39.63310 | 9000 ft | 241 kts | 19° |
| 2026-05-04 20:21 | -12.29515 | -39.61903 | 9000 ft | 241 kts | 19° |
| 2026-05-04 20:22 | -12.27974 | -39.61193 | 9000 ft | 241 kts | 19° |
| 2026-05-04 20:22 | -12.26462 | -39.60497 | 9000 ft | 241 kts | 19° |
| 2026-05-04 20:22 | -12.24923 | -39.59788 | 9000 ft | 241 kts | 19° |
| 2026-05-04 20:22 | -12.23408 | -39.59090 | 9000 ft | 241 kts | 19° |
| 2026-05-04 20:23 | -12.21876 | -39.58384 | 9000 ft | 241 kts | 19° |
| 2026-05-04 20:23 | -12.20343 | -39.57678 | 9000 ft | 241 kts | 19° |
| 2026-05-04 20:23 | -12.18827 | -39.56980 | 9000 ft | 241 kts | 19° |
| 2026-05-04 20:23 | -12.17296 | -39.56298 | 9000 ft | 240 kts | 18° |
| 2026-05-04 20:24 | -12.15747 | -39.55637 | 9000 ft | 240 kts | 18° |
| 2026-05-04 20:24 | -12.14193 | -39.54988 | 9000 ft | 240 kts | 17° |
| 2026-05-04 20:24 | -12.12654 | -39.54354 | 9000 ft | 240 kts | 17° |
| 2026-05-04 20:24 | -12.11118 | -39.53725 | 9000 ft | 240 kts | 17° |
| 2026-05-04 20:25 | -12.09559 | -39.53090 | 9000 ft | 240 kts | 17° |
| 2026-05-04 20:25 | -12.07996 | -39.52453 | 9000 ft | 240 kts | 17° |
| 2026-05-04 20:25 | -12.06455 | -39.51827 | 9000 ft | 240 kts | 17° |
| 2026-05-04 20:25 | -12.04904 | -39.51197 | 9000 ft | 240 kts | 17° |
| 2026-05-04 20:26 | -12.03369 | -39.50574 | 9000 ft | 240 kts | 17° |
| 2026-05-04 20:26 | -12.01805 | -39.49940 | 9000 ft | 240 kts | 17° |
| 2026-05-04 20:26 | -12.00263 | -39.49314 | 9000 ft | 240 kts | 17° |
| 2026-05-04 20:26 | -11.98713 | -39.48685 | 9000 ft | 240 kts | 17° |
| 2026-05-04 20:27 | -11.97159 | -39.48055 | 9000 ft | 240 kts | 17° |
| 2026-05-04 20:27 | -11.95598 | -39.47423 | 9000 ft | 240 kts | 17° |
| 2026-05-04 20:27 | -11.94058 | -39.46798 | 9000 ft | 240 kts | 17° |
| 2026-05-04 20:27 | -11.92502 | -39.46168 | 9000 ft | 240 kts | 17° |
| 2026-05-04 20:28 | -11.90943 | -39.45536 | 9000 ft | 240 kts | 17° |
| 2026-05-04 20:28 | -11.89405 | -39.44913 | 9000 ft | 240 kts | 17° |
| 2026-05-04 20:28 | -11.87839 | -39.44279 | 9000 ft | 240 kts | 17° |
| 2026-05-04 20:28 | -11.86295 | -39.43653 | 9000 ft | 240 kts | 17° |
| 2026-05-04 20:29 | -11.84751 | -39.43028 | 9000 ft | 240 kts | 17° |
| 2026-05-04 20:29 | -11.83191 | -39.42396 | 9000 ft | 240 kts | 17° |
| 2026-05-04 20:29 | -11.81644 | -39.41770 | 9000 ft | 240 kts | 17° |
| 2026-05-04 20:29 | -11.80099 | -39.41144 | 9000 ft | 240 kts | 17° |
| 2026-05-04 20:30 | -11.78538 | -39.40512 | 9000 ft | 240 kts | 17° |
| 2026-05-04 20:30 | -11.76979 | -39.39881 | 9000 ft | 240 kts | 17° |
| 2026-05-04 20:30 | -11.75445 | -39.39260 | 9000 ft | 240 kts | 17° |
| 2026-05-04 20:30 | -11.73886 | -39.38629 | 9000 ft | 240 kts | 17° |
| 2026-05-04 20:31 | -11.72338 | -39.38003 | 9000 ft | 240 kts | 17° |
| 2026-05-04 20:31 | -11.70779 | -39.37372 | 9000 ft | 240 kts | 17° |
| 2026-05-04 20:31 | -11.69234 | -39.36747 | 9000 ft | 240 kts | 17° |
| 2026-05-04 20:31 | -11.67685 | -39.36121 | 9000 ft | 240 kts | 17° |
| 2026-05-04 20:32 | -11.66126 | -39.35490 | 9000 ft | 240 kts | 17° |
| 2026-05-04 20:32 | -11.64569 | -39.34860 | 9000 ft | 240 kts | 17° |
| 2026-05-04 20:32 | -11.63033 | -39.34239 | 9000 ft | 240 kts | 17° |
| 2026-05-04 20:32 | -11.61462 | -39.33604 | 9000 ft | 240 kts | 17° |
| 2026-05-04 20:33 | -11.59924 | -39.32982 | 9000 ft | 240 kts | 17° |
| 2026-05-04 20:33 | -11.58364 | -39.32352 | 9000 ft | 240 kts | 17° |
| 2026-05-04 20:33 | -11.56820 | -39.31728 | 9000 ft | 240 kts | 17° |
| 2026-05-04 20:33 | -11.55252 | -39.31094 | 9000 ft | 240 kts | 17° |
| 2026-05-04 20:34 | -11.53716 | -39.30474 | 9000 ft | 240 kts | 17° |
| 2026-05-04 20:34 | -11.52158 | -39.29844 | 9000 ft | 240 kts | 17° |
| 2026-05-04 20:34 | -11.50610 | -39.29219 | 9000 ft | 240 kts | 17° |
| 2026-05-04 20:34 | -11.49048 | -39.28588 | 9000 ft | 240 kts | 17° |
| 2026-05-04 20:35 | -11.47510 | -39.27967 | 9000 ft | 240 kts | 17° |
| 2026-05-04 20:35 | -11.45948 | -39.27336 | 9000 ft | 240 kts | 17° |
| 2026-05-04 20:35 | -11.44399 | -39.26711 | 9000 ft | 240 kts | 17° |
| 2026-05-04 20:35 | -11.42857 | -39.26088 | 9000 ft | 240 kts | 17° |
| 2026-05-04 20:36 | -11.41299 | -39.25459 | 9000 ft | 240 kts | 17° |
| 2026-05-04 20:36 | -11.39737 | -39.24829 | 9000 ft | 240 kts | 17° |
| 2026-05-04 20:36 | -11.38190 | -39.24205 | 9000 ft | 240 kts | 17° |
| 2026-05-04 20:36 | -11.37152 | -39.23786 | 9000 ft | 240 kts | 17° |
| 2026-05-04 20:37 | -11.35082 | -39.22951 | 9000 ft | 240 kts | 17° |
| 2026-05-04 20:37 | -11.33521 | -39.22321 | 9000 ft | 240 kts | 17° |
| 2026-05-04 20:37 | -11.31975 | -39.21697 | 9000 ft | 240 kts | 17° |
| 2026-05-04 20:37 | -11.30428 | -39.21073 | 9000 ft | 240 kts | 17° |
| 2026-05-04 20:38 | -11.28869 | -39.20444 | 9000 ft | 240 kts | 17° |
| 2026-05-04 20:38 | -11.27838 | -39.20028 | 9000 ft | 240 kts | 17° |
| 2026-05-04 20:38 | -11.25763 | -39.19192 | 9000 ft | 240 kts | 17° |
| 2026-05-04 20:38 | -11.24730 | -39.18776 | 9000 ft | 240 kts | 17° |
| 2026-05-04 20:39 | -11.22660 | -39.17941 | 9000 ft | 240 kts | 17° |
| 2026-05-04 20:39 | -11.21625 | -39.17524 | 9000 ft | 240 kts | 17° |
| 2026-05-04 20:39 | -11.20063 | -39.16894 | 9000 ft | 240 kts | 17° |
| 2026-05-04 20:39 | -11.18505 | -39.16267 | 9000 ft | 240 kts | 17° |
| 2026-05-04 20:40 | -11.16456 | -39.15441 | 9000 ft | 240 kts | 17° |
| 2026-05-04 20:40 | -11.14898 | -39.14814 | 9000 ft | 240 kts | 17° |
| 2026-05-04 20:40 | -11.13862 | -39.14396 | 9000 ft | 240 kts | 17° |
| 2026-05-04 20:40 | -11.12314 | -39.13773 | 9000 ft | 240 kts | 17° |
| 2026-05-04 20:41 | -11.10748 | -39.13142 | 9000 ft | 240 kts | 17° |
| 2026-05-04 20:41 | -11.09206 | -39.12521 | 9000 ft | 240 kts | 17° |
| 2026-05-04 20:41 | -11.07650 | -39.11894 | 9000 ft | 240 kts | 17° |
| 2026-05-04 20:41 | -11.06081 | -39.11263 | 9000 ft | 240 kts | 17° |
| 2026-05-04 20:42 | -11.04539 | -39.10642 | 9000 ft | 240 kts | 17° |
| 2026-05-04 20:42 | -11.02994 | -39.10020 | 9000 ft | 240 kts | 17° |
| 2026-05-04 20:42 | -11.01425 | -39.09389 | 9000 ft | 240 kts | 17° |
| 2026-05-04 20:42 | -10.99873 | -39.08764 | 9000 ft | 240 kts | 17° |
| 2026-05-04 20:43 | -10.98328 | -39.08142 | 9000 ft | 240 kts | 17° |
| 2026-05-04 20:43 | -10.96776 | -39.07518 | 9000 ft | 240 kts | 17° |
| 2026-05-04 20:43 | -10.95216 | -39.06890 | 9000 ft | 240 kts | 17° |
| 2026-05-04 20:43 | -10.93662 | -39.06265 | 9000 ft | 240 kts | 17° |
| 2026-05-04 20:44 | -10.92119 | -39.05645 | 9000 ft | 240 kts | 17° |
| 2026-05-04 20:44 | -10.90555 | -39.05016 | 9000 ft | 240 kts | 17° |
| 2026-05-04 20:44 | -10.88990 | -39.04386 | 9000 ft | 240 kts | 17° |
| 2026-05-04 20:44 | -10.87440 | -39.03763 | 9000 ft | 240 kts | 17° |
| 2026-05-04 20:45 | -10.85877 | -39.03135 | 9000 ft | 240 kts | 17° |
| 2026-05-04 20:45 | -10.84340 | -39.02517 | 9000 ft | 240 kts | 17° |
| 2026-05-04 20:45 | -10.82779 | -39.01890 | 9000 ft | 240 kts | 17° |
| 2026-05-04 20:45 | -10.81227 | -39.01266 | 9000 ft | 240 kts | 17° |
| 2026-05-04 20:46 | -10.79661 | -39.00637 | 9000 ft | 240 kts | 17° |
| 2026-05-04 20:46 | -10.78116 | -39.00016 | 9000 ft | 240 kts | 17° |
| 2026-05-04 20:46 | -10.76571 | -38.99395 | 9000 ft | 240 kts | 17° |
| 2026-05-04 20:46 | -10.74997 | -38.98763 | 9000 ft | 240 kts | 17° |
| 2026-05-04 20:47 | -10.73448 | -38.98141 | 9000 ft | 240 kts | 17° |
| 2026-05-04 20:47 | -10.71904 | -38.97521 | 9000 ft | 240 kts | 17° |
| 2026-05-04 20:47 | -10.70343 | -38.96894 | 9000 ft | 240 kts | 17° |
| 2026-05-04 20:47 | -10.68791 | -38.96271 | 9000 ft | 240 kts | 17° |
| 2026-05-04 20:48 | -10.67231 | -38.95644 | 9000 ft | 240 kts | 17° |
| 2026-05-04 20:48 | -10.65682 | -38.95023 | 9000 ft | 240 kts | 17° |
| 2026-05-04 20:48 | -10.64112 | -38.94393 | 9000 ft | 240 kts | 17° |
| 2026-05-04 20:48 | -10.62560 | -38.93770 | 9000 ft | 240 kts | 17° |
| 2026-05-04 20:49 | -10.61020 | -38.93152 | 9000 ft | 240 kts | 17° |
| 2026-05-04 20:49 | -10.59449 | -38.92521 | 9000 ft | 240 kts | 17° |
| 2026-05-04 20:49 | -10.57902 | -38.91900 | 9000 ft | 240 kts | 17° |
| 2026-05-04 20:49 | -10.56353 | -38.91279 | 9000 ft | 240 kts | 17° |
| 2026-05-04 20:50 | -10.54786 | -38.90651 | 9000 ft | 240 kts | 17° |
| 2026-05-04 20:50 | -10.53243 | -38.90032 | 9000 ft | 240 kts | 17° |
| 2026-05-04 20:50 | -10.51675 | -38.89403 | 9000 ft | 240 kts | 17° |
| 2026-05-04 20:50 | -10.50128 | -38.88783 | 9000 ft | 240 kts | 17° |
| 2026-05-04 20:51 | -10.48573 | -38.88159 | 9000 ft | 240 kts | 17° |
| 2026-05-04 20:51 | -10.47023 | -38.87538 | 9000 ft | 240 kts | 17° |
| 2026-05-04 20:51 | -10.45459 | -38.86911 | 9000 ft | 240 kts | 17° |
| 2026-05-04 20:51 | -10.43894 | -38.86284 | 9000 ft | 240 kts | 17° |
| 2026-05-04 20:52 | -10.42344 | -38.85662 | 9000 ft | 240 kts | 17° |
| 2026-05-04 20:52 | -10.40801 | -38.85044 | 9000 ft | 240 kts | 17° |
| 2026-05-04 20:52 | -10.39240 | -38.84418 | 9000 ft | 240 kts | 17° |
| 2026-05-04 20:52 | -10.37671 | -38.83790 | 9000 ft | 240 kts | 17° |
| 2026-05-04 20:53 | -10.36130 | -38.83173 | 9000 ft | 240 kts | 17° |
| 2026-05-04 20:53 | -10.34562 | -38.82544 | 9000 ft | 240 kts | 17° |
| 2026-05-04 20:53 | -10.33005 | -38.81921 | 9000 ft | 240 kts | 17° |
| 2026-05-04 20:53 | -10.31460 | -38.81302 | 9000 ft | 240 kts | 17° |
| 2026-05-04 20:54 | -10.29895 | -38.80676 | 9000 ft | 240 kts | 17° |
| 2026-05-04 20:54 | -10.28346 | -38.80055 | 9000 ft | 240 kts | 17° |
| 2026-05-04 20:54 | -10.26788 | -38.79432 | 9000 ft | 240 kts | 17° |
| 2026-05-04 20:54 | -10.25241 | -38.78812 | 9000 ft | 240 kts | 17° |
| 2026-05-04 20:55 | -10.23672 | -38.78184 | 9000 ft | 240 kts | 17° |
| 2026-05-04 20:55 | -10.22632 | -38.77768 | 9000 ft | 240 kts | 17° |
| 2026-05-04 20:55 | -10.20558 | -38.76938 | 9000 ft | 240 kts | 17° |
| 2026-05-04 20:55 | -10.19016 | -38.76321 | 9000 ft | 240 kts | 17° |
| 2026-05-04 20:56 | -10.17464 | -38.75700 | 9000 ft | 240 kts | 17° |
| 2026-05-04 20:56 | -10.15903 | -38.75076 | 9000 ft | 240 kts | 17° |
| 2026-05-04 20:56 | -10.14352 | -38.74455 | 9000 ft | 240 kts | 17° |
| 2026-05-04 20:56 | -10.12783 | -38.73828 | 9000 ft | 240 kts | 17° |
| 2026-05-04 20:57 | -10.11230 | -38.73207 | 9000 ft | 240 kts | 17° |
| 2026-05-04 20:57 | -10.09682 | -38.72587 | 9000 ft | 240 kts | 17° |
| 2026-05-04 20:57 | -10.08116 | -38.71961 | 9000 ft | 240 kts | 17° |
| 2026-05-04 20:57 | -10.06567 | -38.71342 | 9000 ft | 240 kts | 17° |
| 2026-05-04 20:58 | -10.04994 | -38.70713 | 9000 ft | 240 kts | 17° |
| 2026-05-04 20:58 | -10.03450 | -38.70096 | 9000 ft | 240 kts | 17° |
| 2026-05-04 20:58 | -10.01902 | -38.69477 | 9000 ft | 240 kts | 17° |
| 2026-05-04 20:58 | -10.00337 | -38.68852 | 9000 ft | 240 kts | 17° |
| 2026-05-04 20:59 | -9.98789 | -38.68233 | 9000 ft | 240 kts | 17° |
| 2026-05-04 20:59 | -9.97216 | -38.67605 | 9000 ft | 240 kts | 17° |
| 2026-05-04 20:59 | -9.95674 | -38.66989 | 9000 ft | 240 kts | 17° |
| 2026-05-04 20:59 | -9.94102 | -38.66361 | 9000 ft | 240 kts | 17° |
| 2026-05-04 21:00 | -9.92561 | -38.65745 | 8999 ft | 239 kts | 17° |
| 2026-05-04 21:00 | -9.91028 | -38.65132 | 9000 ft | 239 kts | 17° |
| 2026-05-04 21:00 | -9.89473 | -38.64511 | 9000 ft | 238 kts | 17° |
| 2026-05-04 21:00 | -9.87946 | -38.63901 | 9000 ft | 238 kts | 17° |
| 2026-05-04 21:01 | -9.86392 | -38.63281 | 9000 ft | 238 kts | 17° |
| 2026-05-04 21:01 | -9.84863 | -38.62671 | 9000 ft | 238 kts | 17° |
| 2026-05-04 21:01 | -9.83318 | -38.62054 | 9000 ft | 238 kts | 17° |
| 2026-05-04 21:01 | -9.81778 | -38.61439 | 9000 ft | 238 kts | 17° |
| 2026-05-04 21:02 | -9.80237 | -38.60825 | 9000 ft | 238 kts | 17° |
| 2026-05-04 21:02 | -9.78706 | -38.60213 | 9000 ft | 238 kts | 17° |
| 2026-05-04 21:02 | -9.77164 | -38.59598 | 9000 ft | 238 kts | 17° |
| 2026-05-04 21:02 | -9.75628 | -38.58986 | 9000 ft | 238 kts | 17° |
| 2026-05-04 21:03 | -9.74078 | -38.58367 | 9000 ft | 238 kts | 17° |
| 2026-05-04 21:03 | -9.72551 | -38.57758 | 9000 ft | 238 kts | 17° |
| 2026-05-04 21:03 | -9.71023 | -38.57149 | 9000 ft | 238 kts | 17° |
| 2026-05-04 21:03 | -9.69481 | -38.56534 | 9000 ft | 238 kts | 17° |
| 2026-05-04 21:04 | -9.67936 | -38.55918 | 9000 ft | 238 kts | 17° |
| 2026-05-04 21:04 | -9.66411 | -38.55310 | 9000 ft | 238 kts | 17° |
| 2026-05-04 21:04 | -9.64884 | -38.54700 | 8989 ft | 233 kts | 17° |
| 2026-05-04 21:04 | -9.63362 | -38.54092 | 8724 ft | 235 kts | 17° |
| 2026-05-04 21:05 | -9.61829 | -38.53481 | 8480 ft | 235 kts | 17° |
| 2026-05-04 21:05 | -9.60318 | -38.52880 | 8234 ft | 235 kts | 17° |
| 2026-05-04 21:05 | -9.59076 | -38.52385 | 8030 ft | 235 kts | 17° |
| 2026-05-04 21:05 | -9.57660 | -38.51821 | 7798 ft | 235 kts | 17° |
| 2026-05-04 21:06 | -9.56067 | -38.51186 | 7534 ft | 233 kts | 17° |
| 2026-05-04 21:06 | -9.54587 | -38.50594 | 7283 ft | 229 kts | 17° |
| 2026-05-04 21:06 | -9.53106 | -38.50003 | 7028 ft | 225 kts | 17° |
| 2026-05-04 21:06 | -9.51663 | -38.49427 | 6777 ft | 223 kts | 17° |
| 2026-05-04 21:07 | -9.50233 | -38.48857 | 6524 ft | 221 kts | 16° |
| 2026-05-04 21:07 | -9.48782 | -38.48282 | 6146 ft | 224 kts | 17° |
| 2026-05-04 21:07 | -9.47344 | -38.47714 | 5780 ft | 223 kts | 18° |
| 2026-05-04 21:07 | -9.45907 | -38.47144 | 5398 ft | 215 kts | 19° |
| 2026-05-04 21:08 | -9.44549 | -38.46604 | 5021 ft | 208 kts | 20° |
| 2026-05-04 21:08 | -9.43211 | -38.46070 | 4639 ft | 203 kts | 21° |
| 2026-05-04 21:08 | -9.41929 | -38.45529 | 4263 ft | 200 kts | 23° |
| 2026-05-04 21:08 | -9.40660 | -38.44956 | 3884 ft | 198 kts | 25° |
| 2026-05-04 21:09 | -9.39401 | -38.44361 | 3513 ft | 199 kts | 25° |
| 2026-05-04 21:09 | -9.38159 | -38.43762 | 3232 ft | 202 kts | 25° |
| 2026-05-04 21:09 | -9.36876 | -38.43137 | 2958 ft | 205 kts | 26° |
| 2026-05-04 21:09 | -9.35584 | -38.42506 | 2774 ft | 204 kts | 26° |
| 2026-05-04 21:10 | -9.34322 | -38.41890 | 2620 ft | 201 kts | 26° |
| 2026-05-04 21:10 | -9.33177 | -38.41132 | 2532 ft | 195 kts | 47° |
| 2026-05-04 21:10 | -9.32616 | -38.40001 | 2511 ft | 171 kts | 81° |
| 2026-05-04 21:10 | -9.32797 | -38.38873 | 2499 ft | 162 kts | 117° |
| 2026-05-04 21:11 | -9.33429 | -38.37951 | 2519 ft | 159 kts | 128° |
| 2026-05-04 21:11 | -9.34107 | -38.37061 | 2506 ft | 162 kts | 126° |
| 2026-05-04 21:11 | -9.34736 | -38.36091 | 2506 ft | 165 kts | 121° |
| 2026-05-04 21:11 | -9.35297 | -38.35062 | 2505 ft | 168 kts | 117° |
| 2026-05-04 21:12 | -9.35818 | -38.34003 | 2503 ft | 169 kts | 116° |
| 2026-05-04 21:12 | -9.36348 | -38.32946 | 2494 ft | 169 kts | 117° |
| 2026-05-04 21:12 | -9.36897 | -38.31894 | 2353 ft | 167 kts | 118° |
| 2026-05-04 21:12 | -9.37439 | -38.30864 | 2200 ft | 164 kts | 117° |
| 2026-05-04 21:13 | -9.37952 | -38.29853 | 2046 ft | 161 kts | 117° |
| 2026-05-04 21:13 | -9.38444 | -38.28854 | 1878 ft | 152 kts | 116° |
| 2026-05-04 21:13 | -9.38896 | -38.27911 | 1611 ft | 150 kts | 117° |
| 2026-05-04 21:13 | -9.39335 | -38.26999 | 1303 ft | 134 kts | 115° |
| 2026-05-04 21:14 | -9.39713 | -38.26210 | 977 ft | 116 kts | 117° |
| 2026-05-04 21:14 | -9.40017 | -38.25591 | 888 ft | 67 kts | 116° |
| 2026-05-04 21:14 | -9.40098 | -38.25414 | 888 ft | 8 kts | 95° |
| 2026-05-04 21:14 | -9.40060 | -38.25373 | 888 ft | 13 kts | 28° |
| 2026-05-04 21:15 | -9.40006 | -38.25345 | 888 ft | 2 kts | 27° |
| 2026-05-04 21:15 | -9.39996 | -38.25340 | 888 ft | 0 kts | 27° |